Forside
METAR-TAF:

METAR-TAF

Lufthavne :

Flughafen Kiel

Kiel, Tyskland

Breddekreds: 54-23N, længdekreds: 010-10E, højde: 31 m

Aktuelle vejr

Denne rapport blev lavet for 13 timer og 7 minutter siden, kl. 14:50 UTC
Vind 7 kt fra sydsydvest
Temperatur 9°C
Fugtighed 71%
Tryk 1011 hPa
Sigt 10 km eller mere
ingen skyer under 1500m og ingen cumulonimbus

METAR: EDHK 171450Z 20007KT CAVOK 09/04 Q1011

Tid: 04:57 (03:57 UTC)

Vejrudsigter

Denne rapport blev lavet for 13 timer og 57 minutter siden, kl. 14:00 UTC
Foreløbig gælder fra 17 på 15 UTC til 17 på 18 UTC
Vind 8 kt fra syd
Sigt 10 km eller mere
Spredte skyer i en højde af 4000 ft

TAF: EDHK 171400Z 1715/1718 19008KT 9999 SCT040

Vejrobservationer og prognoser fra mere end 4000 lufthavne (METAR og TAF).

De gule og røde prikker repræsenterer de meteorologiske stationer.

Flyt musen over at se navnet på stationen.

Så klik over at se vejr observationer og prognoser.

At skifte det kort: Klik på de grønne knapper med et sort kors for at zoome ind; på den grønne knap med en bindestreg for at zoome ud; eller på de grønne pile for tilstødende kort.


METAR-TAF: